sensor_id;sensor_type;location;lat;lon;timestamp;pressure;altitude;pressure_sealevel;temperature;humidity
74921;BME280;63483;47.384;8.860;2023-04-25T00:00:28;94089.38;;;7.57;46.69
74921;BME280;63483;47.384;8.860;2023-04-25T00:02:54;94084.16;;;7.57;46.66
74921;BME280;63483;47.384;8.860;2023-04-25T00:05:22;94081.53;;;7.57;46.64
74921;BME280;63483;47.384;8.860;2023-04-25T00:07:48;94074.69;;;7.56;46.65
74921;BME280;63483;47.384;8.860;2023-04-25T00:10:13;94076.34;;;7.57;46.26
74921;BME280;63483;47.384;8.860;2023-04-25T00:12:39;94080.25;;;7.53;46.50
74921;BME280;63483;47.384;8.860;2023-04-25T00:15:06;94076.69;;;7.54;46.76
74921;BME280;63483;47.384;8.860;2023-04-25T00:17:31;94077.31;;;7.56;46.83
74921;BME280;63483;47.384;8.860;2023-04-25T00:19:56;94058.09;;;7.57;46.64
74921;BME280;63483;47.384;8.860;2023-04-25T00:22:23;94061.84;;;7.55;46.31
74921;BME280;63483;47.384;8.860;2023-04-25T00:24:48;94055.84;;;7.54;46.27
74921;BME280;63483;47.384;8.860;2023-04-25T00:27:14;94054.88;;;7.55;46.28
74921;BME280;63483;47.384;8.860;2023-04-25T00:29:39;94052.25;;;7.55;46.30
74921;BME280;63483;47.384;8.860;2023-04-25T00:32:05;94061.41;;;7.51;46.45
74921;BME280;63483;47.384;8.860;2023-04-25T00:34:30;94057.81;;;7.52;46.34
74921;BME280;63483;47.384;8.860;2023-04-25T00:36:55;94063.03;;;7.52;45.61
74921;BME280;63483;47.384;8.860;2023-04-25T00:39:22;94053.22;;;7.54;45.40
74921;BME280;63483;47.384;8.860;2023-04-25T00:41:47;94058.44;;;7.54;45.38
74921;BME280;63483;47.384;8.860;2023-04-25T00:44:14;94043.78;;;7.53;45.30
74921;BME280;63483;47.384;8.860;2023-04-25T00:46:42;94050.00;;;7.52;45.21
74921;BME280;63483;47.384;8.860;2023-04-25T00:49:07;94040.56;;;7.51;44.10
74921;BME280;63483;47.384;8.860;2023-04-25T00:51:32;94045.75;;;7.51;44.26
74921;BME280;63483;47.384;8.860;2023-04-25T00:53:58;94039.94;;;7.49;44.20
74921;BME280;63483;47.384;8.860;2023-04-25T00:56:24;94047.75;;;7.49;44.13
74921;BME280;63483;47.384;8.860;2023-04-25T00:58:53;94044.50;;;7.47;44.24
74921;BME280;63483;47.384;8.860;2023-04-25T01:01:22;94044.84;;;7.44;44.23
74921;BME280;63483;47.384;8.860;2023-04-25T01:03:49;94042.19;;;7.29;40.60
74921;BME280;63483;47.384;8.860;2023-04-25T01:06:15;94049.03;;;7.30;41.92
74921;BME280;63483;47.384;8.860;2023-04-25T01:08:41;94042.28;;;7.36;41.76
74921;BME280;63483;47.384;8.860;2023-04-25T01:11:06;94042.28;;;7.36;41.34
74921;BME280;63483;47.384;8.860;2023-04-25T01:13:32;94041.50;;;7.35;40.85
74921;BME280;63483;47.384;8.860;2023-04-25T01:15:59;94046.34;;;7.38;40.34
74921;BME280;63483;47.384;8.860;2023-04-25T01:18:25;94035.56;;;7.41;41.11
74921;BME280;63483;47.384;8.860;2023-04-25T01:20:51;94046.47;;;7.45;41.07
74921;BME280;63483;47.384;8.860;2023-04-25T01:23:18;94042.25;;;7.44;41.06
74921;BME280;63483;47.384;8.860;2023-04-25T01:25:44;94048.91;;;7.47;40.34
74921;BME280;63483;47.384;8.860;2023-04-25T01:28:10;94045.28;;;7.48;39.95
74921;BME280;63483;47.384;8.860;2023-04-25T01:30:35;94039.28;;;7.47;38.74
74921;BME280;63483;47.384;8.860;2023-04-25T01:33:02;94030.50;;;7.48;39.00
74921;BME280;63483;47.384;8.860;2023-04-25T01:35:29;94038.31;;;7.48;39.53
74921;BME280;63483;47.384;8.860;2023-04-25T01:37:55;94027.88;;;7.48;39.43
74921;BME280;63483;47.384;8.860;2023-04-25T01:40:21;94029.66;;;7.48;39.68
74921;BME280;63483;47.384;8.860;2023-04-25T01:42:48;94025.63;;;7.45;38.76
74921;BME280;63483;47.384;8.860;2023-04-25T01:45:13;94035.88;;;7.47;39.41
74921;BME280;63483;47.384;8.860;2023-04-25T01:47:39;94034.41;;;7.44;39.34
74921;BME280;63483;47.384;8.860;2023-04-25T01:50:06;94040.59;;;7.43;39.42
74921;BME280;63483;47.384;8.860;2023-04-25T01:52:32;94034.78;;;7.41;39.04
74921;BME280;63483;47.384;8.860;2023-04-25T01:54:59;94034.16;;;7.39;39.18
74921;BME280;63483;47.384;8.860;2023-04-25T01:57:26;94040.34;;;7.38;39.26
74921;BME280;63483;47.384;8.860;2023-04-25T01:59:53;94037.06;;;7.36;39.47
74921;BME280;63483;47.384;8.860;2023-04-25T02:02:22;94033.22;;;7.32;38.97
74921;BME280;63483;47.384;8.860;2023-04-25T02:04:47;94034.19;;;7.31;38.92
74921;BME280;63483;47.384;8.860;2023-04-25T02:07:13;94040.72;;;7.27;39.42
74921;BME280;63483;47.384;8.860;2023-04-25T02:09:38;94041.09;;;7.23;40.01
74921;BME280;63483;47.384;8.860;2023-04-25T02:12:04;94038.38;;;7.17;39.98
74921;BME280;63483;47.384;8.860;2023-04-25T02:14:29;94039.88;;;7.11;39.75
74921;BME280;63483;47.384;8.860;2023-04-25T02:16:54;94032.75;;;7.05;40.12
74921;BME280;63483;47.384;8.860;2023-04-25T02:19:20;94027.06;;;7.01;40.37
74921;BME280;63483;47.384;8.860;2023-04-25T02:21:45;94031.16;;;6.96;40.68
74921;BME280;63483;47.384;8.860;2023-04-25T02:24:10;94020.66;;;6.89;41.02
74921;BME280;63483;47.384;8.860;2023-04-25T02:26:36;94020.34;;;6.84;41.27
74921;BME280;63483;47.384;8.860;2023-04-25T02:29:01;94017.28;;;6.80;41.11
74921;BME280;63483;47.384;8.860;2023-04-25T02:31:27;94012.41;;;6.77;41.18
74921;BME280;63483;47.384;8.860;2023-04-25T02:33:52;94021.19;;;6.76;40.91
74921;BME280;63483;47.384;8.860;2023-04-25T02:36:17;94021.88;;;6.70;41.18
74921;BME280;63483;47.384;8.860;2023-04-25T02:38:43;94026.56;;;6.43;40.64
74921;BME280;63483;47.384;8.860;2023-04-25T02:41:08;94024.81;;;5.30;36.36
74921;BME280;63483;47.384;8.860;2023-04-25T02:43:33;94024.34;;;4.51;37.27
74921;BME280;63483;47.384;8.860;2023-04-25T02:45:59;94025.81;;;3.84;39.01
74921;BME280;63483;47.384;8.860;2023-04-25T02:48:25;94022.38;;;3.31;39.32
74921;BME280;63483;47.384;8.860;2023-04-25T02:50:50;94016.63;;;3.01;40.70
74921;BME280;63483;47.384;8.860;2023-04-25T02:53:15;94021.94;;;3.18;51.73
74921;BME280;63483;47.384;8.860;2023-04-25T02:55:40;94025.50;;;2.81;43.56
74921;BME280;63483;47.384;8.860;2023-04-25T02:58:06;94019.09;;;2.39;42.96
74921;BME280;63483;47.384;8.860;2023-04-25T03:00:32;94018.28;;;2.11;42.94
74921;BME280;63483;47.384;8.860;2023-04-25T03:02:57;94019.47;;;1.89;43.89
74921;BME280;63483;47.384;8.860;2023-04-25T03:05:23;94022.25;;;1.68;44.22
74921;BME280;63483;47.384;8.860;2023-04-25T03:07:48;94010.31;;;1.57;44.19
74921;BME280;63483;47.384;8.860;2023-04-25T03:10:13;94019.03;;;1.46;44.12
74921;BME280;63483;47.384;8.860;2023-04-25T03:12:39;94001.34;;;1.41;44.18
74921;BME280;63483;47.384;8.860;2023-04-25T03:15:04;94001.22;;;1.43;43.83
74921;BME280;63483;47.384;8.860;2023-04-25T03:17:30;93998.59;;;1.63;43.13
74921;BME280;63483;47.384;8.860;2023-04-25T03:19:55;93994.22;;;1.73;44.37
74921;BME280;63483;47.384;8.860;2023-04-25T03:22:21;93993.84;;;1.95;42.28
74921;BME280;63483;47.384;8.860;2023-04-25T03:24:47;93996.25;;;2.07;41.81
74921;BME280;63483;47.384;8.860;2023-04-25T03:27:13;93992.19;;;2.04;41.80
74921;BME280;63483;47.384;8.860;2023-04-25T03:29:38;93999.78;;;2.06;40.66
74921;BME280;63483;47.384;8.860;2023-04-25T03:32:03;93991.38;;;2.04;41.36
74921;BME280;63483;47.384;8.860;2023-04-25T03:34:29;93995.97;;;2.10;42.46
74921;BME280;63483;47.384;8.860;2023-04-25T03:36:54;93990.81;;;2.56;44.15
74921;BME280;63483;47.384;8.860;2023-04-25T03:39:20;93987.81;;;2.96;44.76
74921;BME280;63483;47.384;8.860;2023-04-25T03:41:45;93994.16;;;3.20;41.65
74921;BME280;63483;47.384;8.860;2023-04-25T03:44:10;93988.69;;;3.49;44.00
74921;BME280;63483;47.384;8.860;2023-04-25T03:46:36;93992.25;;;3.75;45.85
74921;BME280;63483;47.384;8.860;2023-04-25T03:49:01;93986.19;;;3.92;45.88
74921;BME280;63483;47.384;8.860;2023-04-25T03:51:26;93986.25;;;4.08;45.49
74921;BME280;63483;47.384;8.860;2023-04-25T03:53:52;93980.50;;;4.23;45.99
74921;BME280;63483;47.384;8.860;2023-04-25T03:56:17;93978.41;;;4.35;46.45
74921;BME280;63483;47.384;8.860;2023-04-25T03:58:43;93969.53;;;4.46;45.77
74921;BME280;63483;47.384;8.860;2023-04-25T04:01:08;93973.13;;;4.53;46.06
74921;BME280;63483;47.384;8.860;2023-04-25T04:03:34;93974.78;;;4.62;46.45
74921;BME280;63483;47.384;8.860;2023-04-25T04:06:07;93979.00;;;4.71;46.41
74921;BME280;63483;47.384;8.860;2023-04-25T04:08:33;93978.69;;;4.74;46.01
74921;BME280;63483;47.384;8.860;2023-04-25T04:10:58;93990.03;;;4.82;46.10
74921;BME280;63483;47.384;8.860;2023-04-25T04:13:28;93983.25;;;4.89;45.95
74921;BME280;63483;47.384;8.860;2023-04-25T04:15:53;93981.28;;;4.91;46.28
74921;BME280;63483;47.384;8.860;2023-04-25T04:18:19;93983.59;;;4.94;45.91
74921;BME280;63483;47.384;8.860;2023-04-25T04:20:44;93973.84;;;4.96;46.24
74921;BME280;63483;47.384;8.860;2023-04-25T04:23:10;93974.84;;;4.95;45.91
74921;BME280;63483;47.384;8.860;2023-04-25T04:25:36;93978.41;;;4.94;45.47
74921;BME280;63483;47.384;8.860;2023-04-25T04:28:01;93977.28;;;4.97;45.74
74921;BME280;63483;47.384;8.860;2023-04-25T04:30:27;93974.53;;;4.98;45.72
74921;BME280;63483;47.384;8.860;2023-04-25T04:32:56;93982.63;;;5.03;45.60
74921;BME280;63483;47.384;8.860;2023-04-25T04:35:22;93975.50;;;5.05;45.70
74921;BME280;63483;47.384;8.860;2023-04-25T04:37:48;93983.91;;;5.07;45.54
74921;BME280;63483;47.384;8.860;2023-04-25T04:40:14;93977.44;;;5.11;45.72
74921;BME280;63483;47.384;8.860;2023-04-25T04:42:43;93977.44;;;5.11;45.65
74921;BME280;63483;47.384;8.860;2023-04-25T04:45:10;93979.06;;;5.12;46.02
74921;BME280;63483;47.384;8.860;2023-04-25T04:47:36;93972.88;;;5.13;46.09
74921;BME280;63483;47.384;8.860;2023-04-25T04:50:02;93977.75;;;5.17;46.00
74921;BME280;63483;47.384;8.860;2023-04-25T04:52:29;93976.78;;;5.18;45.85
74921;BME280;63483;47.384;8.860;2023-04-25T04:54:54;93973.22;;;5.19;45.54
74921;BME280;63483;47.384;8.860;2023-04-25T04:57:20;93970.13;;;5.15;45.57
74921;BME280;63483;47.384;8.860;2023-04-25T04:59:45;93967.38;;;5.08;45.54
74921;BME280;63483;47.384;8.860;2023-04-25T05:02:11;93964.13;;;5.06;45.66
74921;BME280;63483;47.384;8.860;2023-04-25T05:04:36;93966.72;;;5.06;46.15
74921;BME280;63483;47.384;8.860;2023-04-25T05:07:01;93963.66;;;5.11;45.75
74921;BME280;63483;47.384;8.860;2023-04-25T05:09:27;93960.22;;;5.10;45.83
74921;BME280;63483;47.384;8.860;2023-04-25T05:11:52;93958.47;;;5.11;46.01
74921;BME280;63483;47.384;8.860;2023-04-25T05:14:18;93963.50;;;5.12;45.93
74921;BME280;63483;47.384;8.860;2023-04-25T05:16:43;93967.69;;;5.13;45.95
74921;BME280;63483;47.384;8.860;2023-04-25T05:19:09;93964.94;;;5.15;45.75
74921;BME280;63483;47.384;8.860;2023-04-25T05:21:34;93956.34;;;5.15;46.08
74921;BME280;63483;47.384;8.860;2023-04-25T05:24:00;93963.81;;;5.18;46.10
74921;BME280;63483;47.384;8.860;2023-04-25T05:26:26;93962.69;;;5.20;45.65
74921;BME280;63483;47.384;8.860;2023-04-25T05:28:56;93965.09;;;5.22;45.99
74921;BME280;63483;47.384;8.860;2023-04-25T05:31:21;93964.78;;;5.25;45.82
74921;BME280;63483;47.384;8.860;2023-04-25T05:33:46;93973.88;;;5.29;45.67
74921;BME280;63483;47.384;8.860;2023-04-25T05:36:12;93966.38;;;5.34;46.18
74921;BME280;63483;47.384;8.860;2023-04-25T05:38:37;93970.28;;;5.38;46.32
74921;BME280;63483;47.384;8.860;2023-04-25T05:41:02;93974.00;;;5.44;46.19
74921;BME280;63483;47.384;8.860;2023-04-25T05:43:28;93963.13;;;5.48;46.75
74921;BME280;63483;47.384;8.860;2023-04-25T05:45:53;93968.00;;;5.43;47.16
74921;BME280;63483;47.384;8.860;2023-04-25T05:48:18;93971.72;;;5.49;46.86
74921;BME280;63483;47.384;8.860;2023-04-25T05:50:44;93976.44;;;5.45;46.59
74921;BME280;63483;47.384;8.860;2023-04-25T05:53:09;93976.91;;;5.49;46.65
74921;BME280;63483;47.384;8.860;2023-04-25T05:55:34;93972.56;;;5.50;46.86
74921;BME280;63483;47.384;8.860;2023-04-25T05:58:00;93960.38;;;5.50;44.90
74921;BME280;63483;47.384;8.860;2023-04-25T06:00:25;93971.25;;;5.37;45.64
74921;BME280;63483;47.384;8.860;2023-04-25T06:02:51;93971.25;;;4.96;42.82
74921;BME280;63483;47.384;8.860;2023-04-25T06:05:16;93966.34;;;4.76;42.25
74921;BME280;63483;47.384;8.860;2023-04-25T06:07:41;93965.69;;;4.58;44.03
74921;BME280;63483;47.384;8.860;2023-04-25T06:10:07;93965.94;;;4.30;42.04
74921;BME280;63483;47.384;8.860;2023-04-25T06:12:33;93965.63;;;4.33;42.46
74921;BME280;63483;47.384;8.860;2023-04-25T06:14:59;93965.50;;;4.00;41.24
74921;BME280;63483;47.384;8.860;2023-04-25T06:17:24;93956.28;;;3.71;44.89
74921;BME280;63483;47.384;8.860;2023-04-25T06:19:49;93955.25;;;3.90;42.76
74921;BME280;63483;47.384;8.860;2023-04-25T06:22:15;93961.72;;;3.86;43.11
74921;BME280;63483;47.384;8.860;2023-04-25T06:24:40;93963.50;;;3.86;42.20
74921;BME280;63483;47.384;8.860;2023-04-25T06:27:05;93957.81;;;3.82;45.70
74921;BME280;63483;47.384;8.860;2023-04-25T06:29:31;93960.63;;;3.97;43.36
74921;BME280;63483;47.384;8.860;2023-04-25T06:31:56;93957.25;;;4.05;41.78
74921;BME280;63483;47.384;8.860;2023-04-25T06:34:22;93960.00;;;4.03;42.28
74921;BME280;63483;47.384;8.860;2023-04-25T06:36:47;93964.56;;;4.10;44.06
74921;BME280;63483;47.384;8.860;2023-04-25T06:39:13;93967.00;;;4.11;41.92
74921;BME280;63483;47.384;8.860;2023-04-25T06:41:38;93972.69;;;4.15;40.83
74921;BME280;63483;47.384;8.860;2023-04-25T06:44:04;93964.88;;;4.06;41.40
74921;BME280;63483;47.384;8.860;2023-04-25T06:46:29;93984.28;;;4.02;44.03
74921;BME280;63483;47.384;8.860;2023-04-25T06:48:54;93988.25;;;4.15;40.64
74921;BME280;63483;47.384;8.860;2023-04-25T06:51:20;94004.56;;;4.07;40.75
74921;BME280;63483;47.384;8.860;2023-04-25T06:53:45;94009.41;;;4.02;42.93
74921;BME280;63483;47.384;8.860;2023-04-25T06:56:11;94010.53;;;3.99;48.70
74921;BME280;63483;47.384;8.860;2023-04-25T06:58:36;94011.00;;;3.68;45.77
74921;BME280;63483;47.384;8.860;2023-04-25T07:01:01;94020.34;;;3.35;45.37
74921;BME280;63483;47.384;8.860;2023-04-25T07:03:27;94032.94;;;3.02;45.62
74921;BME280;63483;47.384;8.860;2023-04-25T07:05:52;94052.16;;;2.81;46.85
74921;BME280;63483;47.384;8.860;2023-04-25T07:08:17;94046.78;;;2.75;51.57
74921;BME280;63483;47.384;8.860;2023-04-25T07:10:43;94054.03;;;2.89;48.02
74921;BME280;63483;47.384;8.860;2023-04-25T07:13:08;94045.88;;;2.84;49.73
74921;BME280;63483;47.384;8.860;2023-04-25T07:15:33;94044.50;;;2.90;49.49
74921;BME280;63483;47.384;8.860;2023-04-25T07:17:59;94052.69;;;3.03;47.96
74921;BME280;63483;47.384;8.860;2023-04-25T07:20:24;94044.44;;;2.99;47.66
74921;BME280;63483;47.384;8.860;2023-04-25T07:22:50;94039.16;;;3.09;48.08
74921;BME280;63483;47.384;8.860;2023-04-25T07:25:16;94044.19;;;3.11;47.56
74921;BME280;63483;47.384;8.860;2023-04-25T07:27:41;94043.88;;;3.14;46.04
74921;BME280;63483;47.384;8.860;2023-04-25T07:30:07;94040.50;;;3.13;46.92
74921;BME280;63483;47.384;8.860;2023-04-25T07:32:33;94030.66;;;3.17;48.44
74921;BME280;63483;47.384;8.860;2023-04-25T07:34:58;94041.53;;;3.39;51.78
74921;BME280;63483;47.384;8.860;2023-04-25T07:37:23;94043.34;;;3.64;52.70
74921;BME280;63483;47.384;8.860;2023-04-25T07:39:49;94033.59;;;3.84;53.31
74921;BME280;63483;47.384;8.860;2023-04-25T07:42:14;94028.81;;;3.98;52.51
74921;BME280;63483;47.384;8.860;2023-04-25T07:44:39;94040.09;;;4.15;52.23
74921;BME280;63483;47.384;8.860;2023-04-25T07:47:09;94036.88;;;4.29;52.25
74921;BME280;63483;47.384;8.860;2023-04-25T07:49:35;94037.09;;;4.36;51.85
74921;BME280;63483;47.384;8.860;2023-04-25T07:52:02;94044.13;;;4.52;51.49
74921;BME280;63483;47.384;8.860;2023-04-25T07:54:28;94044.13;;;4.60;51.38
74921;BME280;63483;47.384;8.860;2023-04-25T07:56:53;94049.31;;;4.60;51.00
74921;BME280;63483;47.384;8.860;2023-04-25T07:59:19;94051.63;;;4.71;50.41
74921;BME280;63483;47.384;8.860;2023-04-25T08:01:44;94060.06;;;4.73;50.47
74921;BME280;63483;47.384;8.860;2023-04-25T08:04:09;94057.50;;;4.82;50.68
74921;BME280;63483;47.384;8.860;2023-04-25T08:06:35;94065.63;;;4.87;50.36
74921;BME280;63483;47.384;8.860;2023-04-25T08:09:01;94065.00;;;4.93;50.55
74921;BME280;63483;47.384;8.860;2023-04-25T08:11:26;94071.50;;;4.97;50.71
74921;BME280;63483;47.384;8.860;2023-04-25T08:13:51;94069.06;;;4.95;50.64
74921;BME280;63483;47.384;8.860;2023-04-25T08:16:17;94071.84;;;5.02;51.15
74921;BME280;63483;47.384;8.860;2023-04-25T08:18:42;94084.50;;;5.05;50.79
74921;BME280;63483;47.384;8.860;2023-04-25T08:21:08;94077.22;;;5.01;51.00
74921;BME280;63483;47.384;8.860;2023-04-25T08:23:36;94076.69;;;4.97;51.03
74921;BME280;63483;47.384;8.860;2023-04-25T08:26:02;94082.50;;;4.91;51.91
74921;BME280;63483;47.384;8.860;2023-04-25T08:28:27;94078.81;;;4.93;51.68
74921;BME280;63483;47.384;8.860;2023-04-25T08:30:53;94081.25;;;4.95;51.56
74921;BME280;63483;47.384;8.860;2023-04-25T08:33:18;94086.13;;;5.06;52.10
74921;BME280;63483;47.384;8.860;2023-04-25T08:35:44;94091.97;;;5.08;51.89
74921;BME280;63483;47.384;8.860;2023-04-25T08:38:09;94087.94;;;5.14;52.49
74921;BME280;63483;47.384;8.860;2023-04-25T08:40:37;94096.84;;;5.20;52.53
74921;BME280;63483;47.384;8.860;2023-04-25T08:43:06;94100.44;;;5.27;52.37
74921;BME280;63483;47.384;8.860;2023-04-25T08:45:38;94104.53;;;5.38;52.42
74921;BME280;63483;47.384;8.860;2023-04-25T08:48:04;94109.56;;;5.47;55.01
74921;BME280;63483;47.384;8.860;2023-04-25T08:50:30;94108.75;;;5.63;53.93
74921;BME280;63483;47.384;8.860;2023-04-25T08:52:56;94110.06;;;5.68;54.21
74921;BME280;63483;47.384;8.860;2023-04-25T08:55:27;94111.50;;;5.78;52.74
74921;BME280;63483;47.384;8.860;2023-04-25T08:57:54;94121.25;;;5.85;53.48
74921;BME280;63483;47.384;8.860;2023-04-25T09:00:20;94124.50;;;5.87;53.16
74921;BME280;63483;47.384;8.860;2023-04-25T09:02:46;94128.72;;;5.96;52.05
74921;BME280;63483;47.384;8.860;2023-04-25T09:05:13;94140.09;;;6.03;52.11
74921;BME280;63483;47.384;8.860;2023-04-25T09:07:38;94129.38;;;6.06;51.77
74921;BME280;63483;47.384;8.860;2023-04-25T09:10:04;94139.09;;;6.12;51.84
74921;BME280;63483;47.384;8.860;2023-04-25T09:12:29;94143.63;;;6.18;51.57
74921;BME280;63483;47.384;8.860;2023-04-25T09:15:08;94144.78;;;6.16;51.95
74921;BME280;63483;47.384;8.860;2023-04-25T09:17:34;94153.06;;;6.11;51.31
74921;BME280;63483;47.384;8.860;2023-04-25T09:20:26;94148.84;;;6.02;51.22
74921;BME280;63483;47.384;8.860;2023-04-25T09:23:03;94153.41;;;6.00;52.01
74921;BME280;63483;47.384;8.860;2023-04-25T09:25:34;94157.00;;;6.07;51.79
74921;BME280;63483;47.384;8.860;2023-04-25T09:28:03;94156.66;;;6.10;51.60
74921;BME280;63483;47.384;8.860;2023-04-25T09:30:30;94160.53;;;6.14;51.20
74921;BME280;63483;47.384;8.860;2023-04-25T09:32:57;94160.22;;;6.01;51.59
74921;BME280;63483;47.384;8.860;2023-04-25T09:35:26;94163.47;;;6.11;51.70
74921;BME280;63483;47.384;8.860;2023-04-25T09:37:51;94170.78;;;5.99;51.83
74921;BME280;63483;47.384;8.860;2023-04-25T09:40:17;94160.91;;;6.03;51.28
74921;BME280;63483;47.384;8.860;2023-04-25T09:42:43;94178.09;;;6.04;51.60
74921;BME280;63483;47.384;8.860;2023-04-25T09:45:12;94178.75;;;5.98;51.02
74921;BME280;63483;47.384;8.860;2023-04-25T09:47:38;94170.63;;;6.01;51.27
74921;BME280;63483;47.384;8.860;2023-04-25T09:50:13;94177.47;;;6.10;51.32
74921;BME280;63483;47.384;8.860;2023-04-25T09:52:39;94181.84;;;6.10;50.77
74921;BME280;63483;47.384;8.860;2023-04-25T09:55:04;94185.91;;;6.12;49.87
74921;BME280;63483;47.384;8.860;2023-04-25T09:57:31;94184.94;;;6.05;50.35
74921;BME280;63483;47.384;8.860;2023-04-25T09:59:57;94186.53;;;6.14;50.06
74921;BME280;63483;47.384;8.860;2023-04-25T10:02:26;94186.22;;;6.26;50.95
74921;BME280;63483;47.384;8.860;2023-04-25T10:04:53;94185.88;;;6.29;51.40
74921;BME280;63483;47.384;8.860;2023-04-25T10:07:24;94184.41;;;5.44;45.98
74921;BME280;63483;47.384;8.860;2023-04-25T10:10:00;94186.00;;;5.37;46.38
74921;BME280;63483;47.384;8.860;2023-04-25T10:12:28;94191.63;;;5.16;47.34
74921;BME280;63483;47.384;8.860;2023-04-25T10:14:54;94179.19;;;4.93;49.75
74921;BME280;63483;47.384;8.860;2023-04-25T10:17:20;94183.34;;;4.51;47.66
74921;BME280;63483;47.384;8.860;2023-04-25T10:19:50;94185.94;;;4.25;48.62
74921;BME280;63483;47.384;8.860;2023-04-25T10:22:32;94199.03;;;4.41;52.85
74921;BME280;63483;47.384;8.860;2023-04-25T10:25:00;94189.91;;;4.11;53.00
74921;BME280;63483;47.384;8.860;2023-04-25T10:27:28;94202.09;;;4.19;46.97
74921;BME280;63483;47.384;8.860;2023-04-25T10:30:03;94204.03;;;4.17;51.21
74921;BME280;63483;47.384;8.860;2023-04-25T10:32:33;94200.00;;;4.49;50.74
74921;BME280;63483;47.384;8.860;2023-04-25T10:35:10;94215.81;;;4.11;53.27
74921;BME280;63483;47.384;8.860;2023-04-25T10:37:36;94205.78;;;3.90;51.57
74921;BME280;63483;47.384;8.860;2023-04-25T10:40:08;94210.28;;;3.88;49.65
74921;BME280;63483;47.384;8.860;2023-04-25T10:42:34;94205.53;;;3.65;50.13
74921;BME280;63483;47.384;8.860;2023-04-25T10:45:02;94221.38;;;3.62;50.76
74921;BME280;63483;47.384;8.860;2023-04-25T10:47:36;94226.09;;;3.49;50.60
74921;BME280;63483;47.384;8.860;2023-04-25T10:50:06;94228.94;;;3.74;52.81
74921;BME280;63483;47.384;8.860;2023-04-25T10:52:32;94215.31;;;3.89;49.68
74921;BME280;63483;47.384;8.860;2023-04-25T10:54:58;94219.06;;;3.95;49.58
74921;BME280;63483;47.384;8.860;2023-04-25T10:57:44;94213.16;;;4.03;50.78
74921;BME280;63483;47.384;8.860;2023-04-25T11:00:16;94216.03;;;4.00;49.36
74921;BME280;63483;47.384;8.860;2023-04-25T11:02:47;94217.09;;;4.33;55.42
74921;BME280;63483;47.384;8.860;2023-04-25T11:05:32;94221.66;;;4.92;54.24
74921;BME280;63483;47.384;8.860;2023-04-25T11:07:58;94224.09;;;5.28;54.25
74921;BME280;63483;47.384;8.860;2023-04-25T11:10:28;94228.59;;;5.60;53.56
74921;BME280;63483;47.384;8.860;2023-04-25T11:12:54;94220.00;;;5.76;52.33
74921;BME280;63483;47.384;8.860;2023-04-25T11:15:20;94223.63;;;6.00;51.53
74921;BME280;63483;47.384;8.860;2023-04-25T11:17:45;94212.88;;;6.03;50.95
74921;BME280;63483;47.384;8.860;2023-04-25T11:20:12;94221.00;;;6.08;51.16
74921;BME280;63483;47.384;8.860;2023-04-25T11:22:39;94225.56;;;6.31;50.96
74921;BME280;63483;47.384;8.860;2023-04-25T11:25:09;94230.31;;;6.35;49.67
74921;BME280;63483;47.384;8.860;2023-04-25T11:27:55;94226.84;;;6.51;49.25
74921;BME280;63483;47.384;8.860;2023-04-25T11:30:23;94239.41;;;6.56;48.99
74921;BME280;63483;47.384;8.860;2023-04-25T11:32:49;94234.00;;;6.66;47.49
74921;BME280;63483;47.384;8.860;2023-04-25T11:35:15;94231.44;;;6.58;48.51
74921;BME280;63483;47.384;8.860;2023-04-25T11:37:41;94226.19;;;6.74;45.89
74921;BME280;63483;47.384;8.860;2023-04-25T11:40:08;94226.53;;;7.11;46.20
74921;BME280;63483;47.384;8.860;2023-04-25T11:42:38;94216.00;;;7.04;45.47
74921;BME280;63483;47.384;8.860;2023-04-25T11:45:04;94221.50;;;7.17;47.78
74921;BME280;63483;47.384;8.860;2023-04-25T11:47:31;94205.44;;;7.37;47.17
74921;BME280;63483;47.384;8.860;2023-04-25T11:50:01;94230.78;;;7.51;46.91
74921;BME280;63483;47.384;8.860;2023-04-25T11:52:42;94221.25;;;7.75;44.11
74921;BME280;63483;47.384;8.860;2023-04-25T11:55:18;94213.09;;;7.70;44.71
74921;BME280;63483;47.384;8.860;2023-04-25T11:57:46;94225.22;;;7.54;42.48
74921;BME280;63483;47.384;8.860;2023-04-25T12:00:14;94222.03;;;7.44;45.16
74921;BME280;63483;47.384;8.860;2023-04-25T12:02:54;94229.59;;;7.22;41.13
74921;BME280;63483;47.384;8.860;2023-04-25T12:05:23;94238.00;;;7.41;42.75
74921;BME280;63483;47.384;8.860;2023-04-25T12:07:48;94239.56;;;7.50;44.66
74921;BME280;63483;47.384;8.860;2023-04-25T12:10:15;94244.63;;;7.52;47.09
74921;BME280;63483;47.384;8.860;2023-04-25T12:12:43;94239.53;;;7.58;44.30
74921;BME280;63483;47.384;8.860;2023-04-25T12:17:41;94244.44;;;7.62;42.54
74921;BME280;63483;47.384;8.860;2023-04-25T12:20:12;94245.06;;;7.64;42.60
74921;BME280;63483;47.384;8.860;2023-04-25T12:22:41;94233.63;;;7.73;43.17
74921;BME280;63483;47.384;8.860;2023-04-25T12:25:13;94246.22;;;7.92;43.37
74921;BME280;63483;47.384;8.860;2023-04-25T12:27:39;94233.41;;;8.06;43.10
74921;BME280;63483;47.384;8.860;2023-04-25T12:30:09;94238.91;;;8.11;41.29
74921;BME280;63483;47.384;8.860;2023-04-25T12:32:36;94249.16;;;8.13;42.78
74921;BME280;63483;47.384;8.860;2023-04-25T12:35:03;94250.28;;;8.18;42.71
74921;BME280;63483;47.384;8.860;2023-04-25T12:37:29;94252.53;;;8.21;42.21
74921;BME280;63483;47.384;8.860;2023-04-25T12:39:54;94243.06;;;8.20;43.07
74921;BME280;63483;47.384;8.860;2023-04-25T12:42:20;94247.31;;;8.21;42.89
74921;BME280;63483;47.384;8.860;2023-04-25T12:44:45;94255.22;;;8.13;42.43
74921;BME280;63483;47.384;8.860;2023-04-25T12:47:11;94258.50;;;8.07;43.14
74921;BME280;63483;47.384;8.860;2023-04-25T12:49:37;94265.88;;;8.03;43.39
74921;BME280;63483;47.384;8.860;2023-04-25T12:52:02;94260.69;;;7.95;43.93
74921;BME280;63483;47.384;8.860;2023-04-25T12:54:28;94256.00;;;7.90;43.79
74921;BME280;63483;47.384;8.860;2023-04-25T12:56:53;94262.69;;;7.93;44.56
74921;BME280;63483;47.384;8.860;2023-04-25T12:59:18;94261.38;;;7.89;44.71
74921;BME280;63483;47.384;8.860;2023-04-25T13:01:45;94277.97;;;7.56;41.52
74921;BME280;63483;47.384;8.860;2023-04-25T13:04:10;94280.41;;;7.58;43.07
74921;BME280;63483;47.384;8.860;2023-04-25T13:06:36;94281.25;;;7.58;44.29
74921;BME280;63483;47.384;8.860;2023-04-25T13:09:01;94288.59;;;7.63;44.40